Aérodrome :
LOGIN :

S'inscrire | Disclaimer

   EN    FR    IT 

 










Légende :    VFR   VFR Marginal   IFR   IFR Intensif   IFR Très Intensif
Visi : 
Plafond : 
>= 8 km
>= 3000ft
5 à 8 km
1000 à 3000 ft
1500m à 5 km
500 à 1000 ft
800 à 1500m
200 à 500 ft
< 800m
< 200 ft
Symboles :   Orages  Brouillard  Fortes neiges  Fortes précipitations  Vent > 20 kt
SIGMETs :   Divers  Orages  Givrage  Turbulence  Onde Orograph.  Cendres Volcan.







- Altitude de l'aérodrome : -15 ft
- Code IATA : RTM


EHRD - Rotterdam Zestienhoven

DERNIER METAR :
  • 231755Z AUTO 05012KT 9999 NSC 11/05 Q1018 NOSIG

METARs EXPIRÉS :
  • 231725Z AUTO 06013KT 020V080 9999 NSC 11/05 Q1018 NOSIG
  • 231655Z AUTO 06013KT 030V090 9999 NSC 12/06 Q1017 NOSIG
  • 231625Z AUTO 06012KT 030V090 9999 BKN042 12/06 Q1017 NOSIG
  • 231555Z AUTO 07011KT 030V110 9999 BKN042 13/05 Q1017 NOSIG
  • 231525Z AUTO 07013KT 040V120 9999 FEW043 13/05 Q1016 NOSIG

TAF TAF EHRD
Valide du 23 à 18h jusqu'au 25 à 00h UTC


231700Z 2318/2424 06013KT CAVOK
PROB30
TEMPO 2402/2409 7000 BKN012
TEMPO 2411/2416 07014G24KT
Pas de NOTAMs connus pour ce terrain.



MET'MAP, la Météo Aéronautique d'un coup d'oeil ! - Copyright ORBIFLY Décembre 2007 - Disclaimer

ORBIFLY MET'MAP TEAM :

Programmation & Développement : Alexandra Zaïnal
Conception & Développement : Baudouin d'Aumeries
Co-Programmation & Développement : Marc-Olivier Méhu
Soutien technique & logistique : Manuel Goepfert

Contact : metmap@orbifly.com




SOURCES & CREDITS :

   NOAA